Tropical Cyclones
[Index]
Main Index Home Page Stock Weather Photos Extreme Storms Discussion Storm News and Storm Chasing Reports Tropical Cyclones / Hurricanes / Typhoons Weather Data and Links Wild Fires / Bushfires Weather Observation Techniques Weather Picture Catalogue Tornado Pictures and Reports Stock Video Footage and DVDs for sale
Season 1978-1979 Tropical Cyclone PETER Track Map
Season 1978-1979 Summaries: [BoM-AU] [JTWC-AU] [JTWC-SIO] [JTWC-SPAC] [JTWC-SH]
<<- Previous TC | JTWC 1978-1979 Season | Next TC ->>

click for intensity scale information  Lat/long Grid: Show Hide

 Date Labels: Show Hide

Joint Typhoon Warning Centre Cyclone Data

Name: PETER
Number: 993 / 7905

29 Dec 1978 00:00 UTC to 04 Jan 1979 12:00 UTC

    date/time    lat    long     hPa   cat  kts
1978-12-29 00   10.0   135.6                  35          
1978-12-29 06   11.1   136.4                  35          
1978-12-29 12   12.0   137.2            1     40          
1978-12-29 18   12.6   138.0            1     45          
1978-12-30 00   13.0   138.8            1     50          
1978-12-30 06   13.2   139.3            1     50          
1978-12-30 12   13.5   139.6            1     50          
1978-12-30 18   13.7   139.9            1     45          
1978-12-31 00   14.0   140.3            1     40          
1978-12-31 06   14.4   141.1            1     40          
1978-12-31 12   14.8   142.0            1     40          
1978-12-31 18   15.1   143.0                  35          
1979-01-01 00   15.4   143.9                  35          
1979-01-01 06   15.6   144.6                  35          
1979-01-01 12   15.8   145.2                  35          
1979-01-01 18   16.0   145.7                  35          
1979-01-02 00   16.2   146.3                  35          
1979-01-02 06   16.3   146.8                  35          
1979-01-02 12   16.2   147.4                  35          
1979-01-02 18   16.2   147.8                  35          
1979-01-03 00   16.0   148.0                  35          
1979-01-03 06   15.5   147.7                  35          
1979-01-03 12   15.0   147.1                  35          
1979-01-03 18   14.7   146.3                              
1979-01-04 00   14.4   145.5                              
1979-01-04 06   13.9   145.0                              
1979-01-04 12   13.2   144.6                              
Winds are 1-min average.

Tropical cyclone tracks developed by Michael Bath using data from the Joint Typhoon Warning Centre Best Tracks and Google Maps.


[Australian Severe Weather index] [Copyright Notice] [Email Contacts] [Search This Site] [Privacy Policy]
Document: tropical_cyclone_peter.htm Updated: 18 September 2016